createdAt,value
2022-09-13T00:00:17.918Z,1.10
2022-09-13T00:02:44.609Z,1.50
2022-09-13T00:05:11.390Z,1.33
2022-09-13T00:07:38.008Z,1.23
2022-09-13T00:10:04.804Z,1.33
2022-09-13T00:12:31.426Z,1.40
2022-09-13T00:14:58.066Z,1.42
2022-09-13T00:17:25.648Z,1.42
2022-09-13T00:19:52.592Z,1.60
2022-09-13T00:22:19.206Z,1.23
2022-09-13T00:24:45.804Z,1.20
2022-09-13T00:27:13.005Z,1.50
2022-09-13T00:29:39.671Z,1.17
2022-09-13T00:32:06.514Z,1.33
2022-09-13T00:34:33.168Z,1.40
2022-09-13T00:36:59.864Z,1.55
2022-09-13T00:39:26.544Z,1.23
2022-09-13T00:41:53.943Z,1.60
2022-09-13T00:44:39.590Z,1.40
2022-09-13T00:47:06.318Z,1.50
2022-09-13T00:49:36.328Z,1.27
2022-09-13T00:52:06.370Z,1.45
2022-09-13T00:54:35.849Z,1.23
2022-09-13T00:57:03.243Z,1.25
2022-09-13T00:59:33.427Z,1.25
2022-09-13T01:02:01.878Z,1.02
2022-09-13T01:04:29.894Z,1.13
2022-09-13T01:06:59.512Z,1.23
2022-09-13T01:09:26.387Z,1.50
2022-09-13T01:12:04.389Z,1.10
2022-09-13T01:14:32.626Z,1.33
2022-09-13T01:16:59.277Z,1.45
2022-09-13T01:19:25.914Z,1.00
2022-09-13T01:21:58.644Z,1.42
2022-09-13T01:24:28.114Z,0.98
2022-09-13T01:27:06.987Z,1.10
2022-09-13T01:29:39.737Z,1.35
2022-09-13T01:32:06.356Z,1.20
2022-09-13T01:34:39.147Z,1.30
2022-09-13T01:37:13.475Z,1.30
2022-09-13T01:39:46.080Z,1.65
2022-09-13T01:42:18.809Z,0.90
2022-09-13T01:44:52.327Z,1.17
2022-09-13T01:47:32.939Z,1.35
2022-09-13T01:50:05.550Z,1.25
2022-09-13T01:52:39.082Z,1.33
2022-09-13T01:55:08.176Z,1.10
2022-09-13T01:57:34.815Z,1.00
2022-09-13T02:00:09.368Z,1.30
2022-09-13T02:02:47.692Z,1.02
2022-09-13T02:05:31.546Z,1.83
2022-09-13T02:08:00.860Z,1.13
2022-09-13T02:10:33.722Z,1.00
2022-09-13T02:13:01.815Z,1.30
2022-09-13T02:15:32.224Z,1.38
2022-09-13T02:18:02.715Z,1.00
2022-09-13T02:20:33.340Z,1.00
2022-09-13T02:23:02.507Z,1.33
2022-09-13T02:25:32.326Z,1.10
2022-09-13T02:28:02.804Z,1.10
2022-09-13T02:30:31.683Z,1.52
2022-09-13T02:33:11.463Z,1.10
2022-09-13T02:35:45.869Z,1.17
2022-09-13T02:38:18.561Z,1.30
2022-09-13T02:41:08.325Z,1.42
2022-09-13T02:43:37.984Z,1.10
2022-09-13T02:46:20.256Z,1.20
2022-09-13T02:49:09.926Z,1.30
2022-09-13T02:51:45.974Z,1.27
2022-09-13T02:54:38.601Z,1.20
2022-09-13T02:57:06.606Z,1.25
2022-09-13T02:59:34.441Z,1.15
2022-09-13T03:02:06.196Z,1.33
2022-09-13T03:04:32.985Z,1.23
2022-09-13T03:07:00.135Z,1.67
2022-09-13T03:09:27.506Z,1.40
2022-09-13T03:12:16.078Z,1.35
2022-09-13T03:15:01.408Z,1.20
2022-09-13T03:17:40.171Z,1.05
2022-09-13T03:20:12.085Z,1.08
2022-09-13T03:22:57.652Z,1.20
2022-09-13T03:25:36.274Z,1.08
2022-09-13T03:28:08.074Z,1.30
2022-09-13T03:30:35.933Z,1.45
2022-09-13T03:33:17.398Z,1.38
2022-09-13T03:35:46.950Z,1.67
2022-09-13T03:38:16.196Z,1.60
2022-09-13T03:40:52.826Z,1.30
2022-09-13T03:43:30.161Z,1.60
2022-09-13T03:45:59.625Z,1.30
2022-09-13T03:48:27.874Z,1.45
2022-09-13T03:50:55.597Z,1.90
2022-09-13T03:53:24.017Z,1.17
2022-09-13T03:55:50.663Z,1.08
2022-09-13T03:58:19.037Z,1.20
2022-09-13T04:00:46.173Z,1.10
2022-09-13T04:03:13.110Z,1.40
2022-09-13T04:05:39.739Z,1.30
2022-09-13T04:08:07.447Z,1.38
2022-09-13T04:10:37.743Z,1.10
2022-09-13T04:13:04.455Z,1.20
2022-09-13T04:15:31.417Z,1.75
2022-09-13T04:17:58.600Z,1.30
2022-09-13T04:20:25.923Z,1.50
2022-09-13T04:22:53.113Z,1.40
2022-09-13T04:25:20.557Z,1.40
2022-09-13T04:27:47.194Z,1.75
2022-09-13T04:30:13.819Z,1.17
2022-09-13T04:32:42.172Z,1.30
2022-09-13T04:35:09.247Z,1.48
2022-09-13T04:37:35.954Z,1.52
2022-09-13T04:40:02.603Z,1.77
2022-09-13T04:42:29.216Z,1.58
2022-09-13T04:44:55.848Z,1.40
2022-09-13T04:47:23.114Z,1.50
2022-09-13T04:49:49.760Z,1.50
2022-09-13T04:52:16.375Z,1.55
2022-09-13T04:54:43.464Z,1.60
2022-09-13T04:57:10.084Z,1.50
2022-09-13T04:59:36.815Z,1.38
2022-09-13T05:02:03.542Z,1.80
2022-09-13T05:04:30.185Z,1.70
2022-09-13T05:06:58.822Z,1.27
2022-09-13T05:09:25.450Z,1.70
2022-09-13T05:11:52.001Z,2.00
2022-09-13T05:14:18.653Z,1.35
2022-09-13T05:16:45.275Z,1.92
2022-09-13T05:19:12.075Z,1.77
2022-09-13T05:21:38.749Z,2.00
2022-09-13T05:24:05.668Z,1.67
2022-09-13T05:26:32.329Z,1.70
2022-09-13T05:28:59.665Z,2.17
2022-09-13T05:31:29.227Z,2.10
2022-09-13T05:33:58.838Z,2.10
2022-09-13T05:36:26.287Z,1.90
2022-09-13T05:39:12.219Z,2.08
2022-09-13T05:41:41.099Z,2.25
2022-09-13T05:44:13.239Z,2.50
2022-09-13T05:46:41.002Z,1.98
2022-09-13T05:49:07.745Z,1.92
2022-09-13T05:51:34.463Z,1.90
2022-09-13T05:54:01.080Z,2.47
2022-09-13T05:56:29.016Z,2.28
2022-09-13T05:58:55.718Z,1.90
2022-09-13T06:01:24.030Z,2.03
2022-09-13T06:03:51.422Z,2.58
2022-09-13T06:06:18.403Z,2.40
2022-09-13T06:08:45.093Z,2.17
2022-09-13T06:11:12.660Z,2.50
2022-09-13T06:13:39.663Z,2.83
2022-09-13T06:16:07.343Z,2.80
2022-09-13T06:18:34.463Z,2.60
2022-09-13T06:21:08.340Z,3.05
2022-09-13T06:23:35.107Z,3.75
2022-09-13T06:26:01.795Z,3.05
2022-09-13T06:28:28.653Z,3.63
2022-09-13T06:31:06.380Z,4.53
2022-09-13T06:33:33.938Z,4.35
2022-09-13T06:36:01.597Z,4.80
2022-09-13T06:38:28.363Z,4.95
2022-09-13T06:41:00.829Z,4.82
2022-09-13T06:43:27.725Z,5.22
2022-09-13T06:45:54.440Z,5.05
2022-09-13T06:48:21.158Z,5.78
2022-09-13T06:50:47.822Z,5.43
2022-09-13T06:53:14.428Z,4.70
2022-09-13T06:55:41.051Z,5.93
2022-09-13T06:58:07.610Z,5.55
2022-09-13T07:00:34.262Z,5.15
2022-09-13T07:03:00.904Z,5.57
2022-09-13T07:05:27.647Z,5.63
2022-09-13T07:07:54.234Z,5.65
2022-09-13T07:10:20.797Z,5.57
2022-09-13T07:12:47.904Z,6.28
2022-09-13T07:15:14.569Z,6.70
2022-09-13T07:17:41.156Z,6.38
2022-09-13T07:20:08.849Z,6.30
2022-09-13T07:22:35.596Z,6.63
2022-09-13T07:25:02.360Z,5.88
2022-09-13T07:27:29.016Z,5.97
2022-09-13T07:29:55.737Z,6.60
2022-09-13T07:32:22.928Z,6.40
2022-09-13T07:34:49.556Z,6.85
2022-09-13T07:37:16.164Z,6.95
2022-09-13T07:39:42.862Z,6.50
2022-09-13T07:42:09.510Z,6.57
2022-09-13T07:44:36.099Z,6.20
2022-09-13T07:47:02.783Z,6.32
2022-09-13T07:49:29.356Z,6.85
2022-09-13T07:51:56.024Z,6.95
2022-09-13T07:54:22.643Z,6.57
2022-09-13T07:56:50.538Z,6.85
2022-09-13T07:59:18.072Z,6.43
2022-09-13T08:01:46.791Z,6.60
2022-09-13T08:04:14.944Z,6.63
2022-09-13T08:06:43.388Z,6.82
2022-09-13T08:09:10.361Z,6.50
2022-09-13T08:11:38.325Z,6.35
2022-09-13T08:14:05.643Z,6.47
2022-09-13T08:16:32.711Z,6.47
2022-09-13T08:19:00.854Z,6.28
2022-09-13T08:21:31.613Z,6.45
2022-09-13T08:24:00.579Z,6.18
2022-09-13T08:26:28.236Z,6.03
2022-09-13T08:28:59.117Z,6.25
2022-09-13T08:31:26.475Z,6.03
2022-09-13T08:33:53.760Z,5.47
2022-09-13T08:36:20.812Z,5.70
2022-09-13T08:38:48.377Z,6.03
2022-09-13T08:41:38.651Z,5.72
2022-09-13T08:44:08.434Z,5.95
2022-09-13T08:46:37.186Z,5.88
2022-09-13T08:49:16.515Z,5.90
2022-09-13T08:51:43.333Z,5.38
2022-09-13T08:54:14.163Z,5.90
2022-09-13T08:56:44.599Z,5.55
2022-09-13T08:59:34.806Z,5.07
2022-09-13T09:02:04.688Z,5.03
2022-09-13T09:04:39.014Z,4.68
2022-09-13T09:07:23.086Z,4.57
2022-09-13T09:09:55.473Z,4.68
2022-09-13T09:12:32.939Z,5.32
2022-09-13T09:15:19.808Z,5.32
2022-09-13T09:17:50.159Z,5.82
2022-09-13T09:20:20.828Z,4.97
2022-09-13T09:22:48.747Z,3.53
2022-09-13T09:25:15.500Z,3.00
2022-09-13T09:27:42.238Z,3.45
2022-09-13T09:30:15.219Z,2.22
2022-09-13T09:33:00.877Z,3.70
2022-09-13T09:36:03.148Z,2.80
2022-09-13T09:38:38.262Z,2.08
2022-09-13T09:41:11.211Z,2.55
2022-09-13T09:43:41.604Z,2.40
2022-09-13T09:46:10.288Z,2.35
2022-09-13T09:48:43.318Z,1.90
2022-09-13T09:51:11.610Z,2.10
2022-09-13T09:53:44.509Z,2.10
2022-09-13T09:56:15.420Z,2.00
2022-09-13T09:58:43.171Z,2.47
2022-09-13T10:01:15.900Z,2.00
2022-09-13T10:03:42.622Z,1.65
2022-09-13T10:06:18.703Z,2.13
2022-09-13T10:08:48.794Z,2.08
2022-09-13T10:11:15.471Z,2.45
2022-09-13T10:13:57.829Z,2.00
2022-09-13T10:16:31.581Z,2.08
2022-09-13T10:19:16.930Z,1.80
2022-09-13T10:21:43.576Z,1.38
2022-09-13T10:24:17.201Z,1.10
2022-09-13T10:26:44.214Z,1.50
2022-09-13T10:29:14.956Z,1.40
2022-09-13T10:31:47.133Z,1.30
2022-09-13T10:34:17.133Z,1.35
2022-09-13T10:36:53.032Z,1.20
2022-09-13T10:39:21.458Z,1.33
2022-09-13T10:41:50.461Z,1.30
2022-09-13T10:44:52.389Z,1.52
2022-09-13T10:47:22.319Z,1.83
2022-09-13T10:49:53.004Z,1.60
2022-09-13T10:52:32.917Z,1.67
2022-09-13T10:55:23.033Z,1.60
2022-09-13T10:57:50.896Z,1.55
2022-09-13T11:00:21.825Z,1.42
2022-09-13T11:02:54.718Z,1.30
2022-09-13T11:05:21.437Z,1.50
2022-09-13T11:07:54.042Z,1.60
2022-09-13T11:10:36.987Z,1.65
2022-09-13T11:13:19.538Z,1.80
2022-09-13T11:15:59.894Z,2.15
2022-09-13T11:18:46.724Z,1.70
2022-09-13T11:21:28.889Z,1.50
2022-09-13T11:24:04.256Z,1.23
2022-09-13T11:26:38.165Z,1.30
2022-09-13T11:29:08.053Z,1.48
2022-09-13T11:31:54.497Z,1.60
2022-09-13T11:34:21.246Z,1.38
2022-09-13T11:37:06.798Z,1.52
2022-09-13T11:39:48.966Z,1.85
2022-09-13T11:42:18.705Z,1.95
2022-09-13T11:44:54.652Z,2.22
2022-09-13T11:47:38.490Z,2.05
2022-09-13T11:50:17.185Z,1.67
2022-09-13T11:52:55.840Z,1.90
2022-09-13T11:55:41.472Z,2.00
2022-09-13T11:58:20.394Z,2.20
2022-09-13T12:00:53.525Z,2.50
2022-09-13T12:03:26.145Z,1.95
2022-09-13T12:06:16.281Z,2.20
2022-09-13T12:08:45.426Z,2.38
2022-09-13T12:11:16.275Z,2.15
2022-09-13T12:13:54.467Z,2.00
2022-09-13T12:16:36.553Z,2.00
2022-09-13T12:19:15.765Z,1.80
2022-09-13T12:21:44.370Z,2.10
2022-09-13T12:24:29.831Z,2.53
2022-09-13T12:27:02.919Z,2.05
2022-09-13T12:29:34.141Z,2.00
2022-09-13T12:32:03.160Z,1.88
2022-09-13T12:34:34.976Z,1.92
2022-09-13T12:37:11.664Z,2.17
2022-09-13T12:39:57.269Z,2.00
2022-09-13T12:42:49.898Z,2.38
2022-09-13T12:45:25.801Z,2.22
2022-09-13T12:47:57.592Z,1.80
2022-09-13T12:50:43.342Z,2.20
2022-09-13T12:53:22.424Z,1.70
2022-09-13T12:55:55.593Z,1.92
2022-09-13T12:58:25.973Z,1.50
2022-09-13T13:00:55.694Z,1.45
2022-09-13T13:03:24.611Z,1.38
2022-09-13T13:05:54.693Z,1.45
2022-09-13T13:08:21.339Z,1.42
2022-09-13T13:11:00.114Z,1.63
2022-09-13T13:13:33.541Z,1.90
2022-09-13T13:16:02.183Z,2.13
2022-09-13T13:18:31.394Z,2.30
2022-09-13T13:20:58.127Z,1.80
2022-09-13T13:23:27.379Z,1.90
2022-09-13T13:26:03.031Z,1.88
2022-09-13T13:28:45.270Z,1.80
2022-09-13T13:31:24.547Z,1.55
2022-09-13T13:34:01.544Z,1.55
2022-09-13T13:36:33.824Z,2.28
2022-09-13T13:39:01.628Z,1.45
2022-09-13T13:41:35.546Z,1.85
2022-09-13T13:44:22.137Z,1.42
2022-09-13T13:46:49.666Z,1.60
2022-09-13T13:49:31.716Z,1.63
2022-09-13T13:52:15.354Z,1.65
2022-09-13T13:54:41.958Z,1.50
2022-09-13T13:57:26.743Z,1.30
2022-09-13T13:59:57.755Z,1.83
2022-09-13T14:02:44.623Z,1.70
2022-09-13T14:05:14.222Z,1.50
2022-09-13T14:07:55.906Z,1.52
2022-09-13T14:10:22.537Z,1.65
2022-09-13T14:13:02.865Z,1.60
2022-09-13T14:15:40.367Z,1.55
2022-09-13T14:18:10.201Z,1.55
2022-09-13T14:20:36.993Z,1.40
2022-09-13T14:23:19.445Z,1.67
2022-09-13T14:25:46.867Z,1.50
2022-09-13T14:28:17.911Z,1.40
2022-09-13T14:30:45.027Z,1.95
2022-09-13T14:33:22.042Z,2.25
2022-09-13T14:35:56.194Z,1.35
2022-09-13T14:38:25.282Z,1.90
2022-09-13T14:40:58.622Z,1.63
2022-09-13T14:43:26.870Z,1.40
2022-09-13T14:45:57.296Z,1.80
2022-09-13T14:48:28.790Z,1.80
2022-09-13T14:51:00.706Z,1.55
2022-09-13T14:53:29.698Z,1.60
2022-09-13T14:55:58.137Z,1.67
2022-09-13T14:58:30.507Z,1.80
2022-09-13T15:01:06.144Z,1.40
2022-09-13T15:03:32.947Z,1.90
2022-09-13T15:06:01.568Z,1.67
2022-09-13T15:08:28.238Z,1.60
2022-09-13T15:10:56.989Z,1.58
2022-09-13T15:13:23.635Z,1.58
2022-09-13T15:15:50.506Z,1.80
2022-09-13T15:18:20.396Z,1.15
2022-09-13T15:20:49.641Z,1.58
2022-09-13T15:23:23.715Z,1.20
2022-09-13T15:25:55.191Z,1.60
2022-09-13T15:28:23.741Z,1.30
2022-09-13T15:30:51.637Z,1.30
2022-09-13T15:33:18.300Z,1.65
2022-09-13T15:35:46.124Z,1.55
2022-09-13T15:38:25.142Z,1.20
2022-09-13T15:41:00.103Z,1.50
2022-09-13T15:43:26.767Z,1.80
2022-09-13T15:45:53.503Z,1.80
2022-09-13T15:48:25.001Z,1.33
2022-09-13T15:51:11.934Z,1.92
2022-09-13T15:53:39.822Z,1.50
2022-09-13T15:56:07.193Z,1.55
2022-09-13T15:58:34.270Z,1.90
2022-09-13T16:01:01.148Z,2.05
2022-09-13T16:03:28.291Z,1.90
2022-09-13T16:05:55.044Z,2.40
2022-09-13T16:08:21.775Z,2.17
2022-09-13T16:10:48.592Z,2.00
2022-09-13T16:13:15.432Z,1.60
2022-09-13T16:15:42.208Z,2.13
2022-09-13T16:18:09.511Z,3.25
2022-09-13T16:20:36.417Z,2.20
2022-09-13T16:23:03.029Z,1.40
2022-09-13T16:25:30.230Z,1.65
2022-09-13T16:27:57.016Z,2.25
2022-09-13T16:30:23.809Z,1.58
2022-09-13T16:32:50.441Z,1.33
2022-09-13T16:35:18.306Z,1.50
2022-09-13T16:37:45.092Z,4.88
2022-09-13T16:40:12.259Z,6.05
2022-09-13T16:42:39.357Z,3.85
2022-09-13T16:45:06.407Z,2.83
2022-09-13T16:47:33.158Z,1.40
2022-09-13T16:50:00.462Z,2.00
2022-09-13T16:52:28.928Z,1.80
2022-09-13T16:54:56.456Z,2.65
2022-09-13T16:57:24.171Z,2.75
2022-09-13T16:59:52.857Z,1.80
2022-09-13T17:02:20.231Z,1.52
2022-09-13T17:04:47.148Z,1.65
2022-09-13T17:07:14.529Z,1.48
2022-09-13T17:09:41.205Z,1.50
2022-09-13T17:12:09.063Z,1.10
2022-09-13T17:14:35.929Z,1.65
2022-09-13T17:17:03.648Z,2.03
2022-09-13T17:19:35.836Z,1.38
2022-09-13T17:22:03.605Z,2.03
2022-09-13T17:24:31.414Z,2.85
2022-09-13T17:26:58.629Z,3.22
2022-09-13T17:29:28.092Z,2.30
2022-09-13T17:31:54.899Z,1.88
2022-09-13T17:34:21.568Z,1.70
2022-09-13T17:36:51.011Z,1.58
2022-09-13T17:39:18.445Z,1.55
2022-09-13T17:41:45.054Z,1.80
2022-09-13T17:44:12.558Z,1.90
2022-09-13T17:46:39.354Z,1.60
2022-09-13T17:49:06.130Z,1.73
2022-09-13T17:51:33.136Z,1.77
2022-09-13T17:54:01.825Z,1.77
2022-09-13T17:56:30.498Z,1.55
2022-09-13T17:58:57.866Z,1.55
2022-09-13T18:01:24.567Z,1.55
2022-09-13T18:03:53.751Z,1.08
2022-09-13T18:06:20.440Z,1.33
2022-09-13T18:08:49.702Z,1.45
2022-09-13T18:11:22.211Z,1.10
2022-09-13T18:13:52.342Z,1.33
2022-09-13T18:16:24.799Z,1.30
2022-09-13T18:18:52.374Z,1.30
2022-09-13T18:21:23.644Z,1.40
2022-09-13T18:23:52.032Z,1.52
2022-09-13T18:26:20.668Z,1.40
2022-09-13T18:28:47.642Z,1.40
2022-09-13T18:31:16.034Z,1.35
2022-09-13T18:33:43.577Z,1.40
2022-09-13T18:36:11.916Z,0.90
2022-09-13T18:38:40.162Z,1.50
2022-09-13T18:41:08.303Z,1.25
2022-09-13T18:43:35.848Z,1.33
2022-09-13T18:46:05.077Z,1.20
2022-09-13T18:48:33.344Z,1.50
2022-09-13T18:51:00.705Z,1.15
2022-09-13T18:53:34.516Z,1.00
2022-09-13T18:56:02.491Z,1.45
2022-09-13T18:58:30.011Z,0.90
2022-09-13T19:01:04.333Z,1.08
2022-09-13T19:03:34.645Z,1.05
2022-09-13T19:06:09.011Z,1.13
2022-09-13T19:08:35.621Z,0.90
2022-09-13T19:11:02.261Z,0.75
2022-09-13T19:13:29.608Z,1.00
2022-09-13T19:16:03.853Z,1.02
2022-09-13T19:18:30.595Z,1.00
2022-09-13T19:21:06.747Z,1.38
2022-09-13T19:23:55.893Z,1.10
2022-09-13T19:26:24.645Z,1.27
2022-09-13T19:28:52.474Z,0.90
2022-09-13T19:31:20.144Z,1.30
2022-09-13T19:33:47.400Z,1.02
2022-09-13T19:36:15.441Z,0.95
2022-09-13T19:38:42.678Z,0.80
2022-09-13T19:41:13.451Z,1.23
2022-09-13T19:43:41.424Z,0.90
2022-09-13T19:46:12.287Z,0.75
2022-09-13T19:48:42.369Z,1.00
2022-09-13T19:51:11.103Z,0.90
2022-09-13T19:53:56.091Z,0.80
2022-09-13T19:56:27.652Z,1.20
2022-09-13T19:58:54.406Z,0.90
2022-09-13T20:01:22.623Z,0.82
2022-09-13T20:03:53.439Z,0.85
2022-09-13T20:06:20.346Z,1.08
2022-09-13T20:08:47.127Z,1.10
2022-09-13T20:11:16.134Z,1.42
2022-09-13T20:13:43.185Z,0.77
2022-09-13T20:16:17.145Z,1.10
2022-09-13T20:18:43.816Z,1.40
2022-09-13T20:21:10.576Z,1.30
2022-09-13T20:23:38.167Z,1.20
2022-09-13T20:26:05.270Z,1.52
2022-09-13T20:28:31.987Z,1.23
2022-09-13T20:31:00.255Z,1.38
2022-09-13T20:33:27.441Z,1.35
2022-09-13T20:35:54.253Z,1.60
2022-09-13T20:38:21.151Z,1.35
2022-09-13T20:40:47.857Z,1.65
2022-09-13T20:43:15.180Z,1.35
2022-09-13T20:45:42.019Z,1.45
2022-09-13T20:48:08.856Z,1.35
2022-09-13T20:50:40.131Z,1.42
2022-09-13T20:53:06.973Z,1.20
2022-09-13T20:55:33.882Z,1.92
2022-09-13T20:58:01.581Z,1.52
2022-09-13T21:00:28.335Z,1.65
2022-09-13T21:02:55.061Z,1.63
2022-09-13T21:05:21.762Z,2.10
2022-09-13T21:08:07.044Z,1.48
2022-09-13T21:10:33.810Z,1.88
2022-09-13T21:13:01.328Z,1.48
2022-09-13T21:15:28.032Z,1.48
2022-09-13T21:17:55.272Z,1.50
2022-09-13T21:20:21.920Z,1.30
2022-09-13T21:22:48.653Z,1.75
2022-09-13T21:25:15.260Z,1.58
2022-09-13T21:27:44.299Z,1.60
2022-09-13T21:30:11.046Z,1.50
2022-09-13T21:32:37.703Z,1.35
2022-09-13T21:35:04.740Z,1.63
2022-09-13T21:37:31.463Z,1.60
2022-09-13T21:39:58.187Z,1.27
2022-09-13T21:42:25.305Z,1.48
2022-09-13T21:44:51.983Z,1.88
2022-09-13T21:47:18.589Z,1.58
2022-09-13T21:49:45.322Z,1.40
2022-09-13T21:52:12.575Z,1.75
2022-09-13T21:54:39.349Z,1.77
2022-09-13T21:57:06.314Z,1.83
2022-09-13T21:59:33.125Z,1.52
2022-09-13T22:02:00.167Z,1.80
2022-09-13T22:04:27.549Z,2.00
2022-09-13T22:06:54.427Z,1.50
2022-09-13T22:09:22.253Z,1.80
2022-09-13T22:11:49.640Z,1.73
2022-09-13T22:14:17.304Z,1.90
2022-09-13T22:16:44.681Z,1.80
2022-09-13T22:19:12.815Z,1.80
2022-09-13T22:21:40.943Z,1.75
2022-09-13T22:24:08.587Z,1.52
2022-09-13T22:26:37.562Z,2.03
2022-09-13T22:29:05.003Z,1.67
2022-09-13T22:31:32.631Z,1.70
2022-09-13T22:34:00.458Z,1.75
2022-09-13T22:36:27.765Z,1.80
2022-09-13T22:38:55.139Z,1.83
2022-09-13T22:41:23.331Z,1.88
2022-09-13T22:43:50.143Z,1.85
2022-09-13T22:46:19.592Z,1.98
2022-09-13T22:48:46.386Z,2.10
2022-09-13T22:51:14.161Z,2.03
2022-09-13T22:53:42.394Z,2.00
2022-09-13T22:56:11.856Z,1.70
2022-09-13T22:58:38.932Z,1.85
2022-09-13T23:01:07.046Z,2.35
2022-09-13T23:03:38.474Z,2.20
2022-09-13T23:06:05.988Z,1.85
2022-09-13T23:08:33.487Z,2.55
2022-09-13T23:11:09.393Z,2.28
2022-09-13T23:13:36.466Z,2.10
2022-09-13T23:16:04.080Z,1.65
2022-09-13T23:18:31.445Z,2.10
2022-09-13T23:20:58.616Z,1.98
2022-09-13T23:23:25.511Z,1.80
2022-09-13T23:25:52.113Z,2.00
2022-09-13T23:28:19.197Z,2.10
2022-09-13T23:30:45.906Z,1.75
2022-09-13T23:33:12.556Z,2.40
2022-09-13T23:35:40.898Z,1.67
2022-09-13T23:38:08.384Z,1.98
2022-09-13T23:40:35.953Z,2.00
2022-09-13T23:43:02.720Z,1.70
2022-09-13T23:45:30.020Z,1.90
2022-09-13T23:47:56.777Z,2.00
2022-09-13T23:50:23.363Z,1.80
2022-09-13T23:52:50.107Z,1.92
2022-09-13T23:55:18.061Z,2.00
2022-09-13T23:57:44.885Z,2.00
